Map

Track Data

SID SEASON NUMBER BASIN SUBBASIN NAME ISO_TIME NATURE LAT LON WMO_WIND WMO_PRES WMO_AGENCY TRACK_TYPE DIST2LAND LANDFALL IFLAG USA_AGENCY USA_ATCF_ID USA_LAT USA_LON USA_RECORD USA_STATUS USA_WIND USA_PRES USA_SSHS USA_R34_NE USA_R34_SE USA_R34_SW USA_R34_NW USA_R50_NE USA_R50_SE USA_R50_SW USA_R50_NW USA_R64_NE USA_R64_SE USA_R64_SW USA_R64_NW USA_POCI USA_ROCI USA_RMW USA_EYE TOKYO_LAT TOKYO_LON TOKYO_GRADE TOKYO_WIND TOKYO_PRES TOKYO_R50_DIR TOKYO_R50_LONG TOKYO_R50_SHORT TOKYO_R30_DIR TOKYO_R30_LONG TOKYO_R30_SHORT TOKYO_LAND CMA_LAT CMA_LON CMA_CAT CMA_WIND CMA_PRES HKO_LAT HKO_LON HKO_CAT HKO_WIND HKO_PRES NEWDELHI_LAT NEWDELHI_LON NEWDELHI_GRADE NEWDELHI_WIND NEWDELHI_PRES NEWDELHI_CI NEWDELHI_DP NEWDELHI_POCI REUNION_LAT REUNION_LON REUNION_TYPE REUNION_WIND REUNION_PRES REUNION_TNUM REUNION_CI REUNION_RMW REUNION_R34_NE REUNION_R34_SE REUNION_R34_SW REUNION_R34_NW REUNION_R50_NE REUNION_R50_SE REUNION_R50_SW REUNION_R50_NW REUNION_R64_NE REUNION_R64_SE REUNION_R64_SW REUNION_R64_NW BOM_LAT BOM_LON BOM_TYPE BOM_WIND BOM_PRES BOM_TNUM BOM_CI BOM_RMW BOM_R34_NE BOM_R34_SE BOM_R34_SW BOM_R34_NW BOM_R50_NE BOM_R50_SE BOM_R50_SW BOM_R50_NW BOM_R64_NE BOM_R64_SE BOM_R64_SW BOM_R64_NW BOM_ROCI BOM_POCI BOM_EYE BOM_POS_METHOD BOM_PRES_METHOD NADI_LAT NADI_LON NADI_CAT NADI_WIND NADI_PRES WELLINGTON_LAT WELLINGTON_LON WELLINGTON_WIND WELLINGTON_PRES DS824_LAT DS824_LON DS824_STAGE DS824_WIND DS824_PRES TD9636_LAT TD9636_LON TD9636_STAGE TD9636_WIND TD9636_PRES TD9635_LAT TD9635_LON TD9635_WIND TD9635_PRES TD9635_ROCI NEUMANN_LAT NEUMANN_LON NEUMANN_CLASS NEUMANN_WIND NEUMANN_PRES MLC_LAT MLC_LON MLC_CLASS MLC_WIND MLC_PRES USA_GUST BOM_GUST BOM_GUST_PER REUNION_GUST REUNION_GUST_PER USA_SEAHGT USA_SEARAD_NE USA_SEARAD_SE USA_SEARAD_SW USA_SEARAD_NW STORM_SPEED STORM_DIR
1929288N13131 1929 67 WP MM NOT_NAMED 1929-10-14 22:00:00 NR 12.8000 131.100 main 611 560 __________O___ -1 12.8000 131.100 7 15 295
1929288N13131 1929 67 WP MM NOT_NAMED 1929-10-15 00:00:00 NR 13.0125 130.633 main 560 493 __________P___ -1 13.0125 130.633 7 15 295
1929288N13131 1929 67 WP MM NOT_NAMED 1929-10-15 03:00:00 NR 13.3320 129.937 main 493 440 __________P___ -1 13.3320 129.937 7 15 296
1929288N13131 1929 67 WP MM NOT_NAMED 1929-10-15 06:00:00 NR 13.6556 129.259 main 444 391 __________P___ -1 13.6556 129.259 7 15 297
1929288N13131 1929 67 WP MM NOT_NAMED 1929-10-15 09:00:00 NR 13.9871 128.609 main 391 379 __________P___ -1 13.9871 128.609 7 14 298
1929288N13131 1929 67 WP MM NOT_NAMED 1929-10-15 10:00:00 NR 14.1000 128.400 main 379 358 __________O___ -1 14.1000 128.400 7 14 300
1929288N13131 1929 67 WP MM NOT_NAMED 1929-10-15 12:00:00 NR 14.3303 127.997 main 358 335 __________P___ -1 14.3303 127.997 7 13 302
1929288N13131 1929 67 WP MM NOT_NAMED 1929-10-15 15:00:00 NR 14.6887 127.430 main 335 296 __________P___ -1 14.6887 127.430 7 13 305
1929288N13131 1929 67 WP MM NOT_NAMED 1929-10-15 18:00:00 NR 15.0651 126.912 main 300 279 __________P___ -1 15.0651 126.912 7 12 309
1929288N13131 1929 67 WP MM NOT_NAMED 1929-10-15 21:00:00 NR 15.4624 126.444 main 279 279 __________P___ -1 15.4624 126.444 7 12 312
1929288N13131 1929 67 WP MM NOT_NAMED 1929-10-15 22:00:00 NR 15.6000 126.300 main 279 279 __________O___ -1 15.6000 126.300 7 12 314
1929288N13131 1929 67 WP MM NOT_NAMED 1929-10-16 00:00:00 NR 15.8773 126.006 main 280 273 __________P___ -1 15.8773 126.006 7 12 317
1929288N13131 1929 67 WP MM NOT_NAMED 1929-10-16 03:00:00 NR 16.3125 125.608 main 292 292 __________P___ -1 16.3125 125.608 7 11 321
1929288N13131 1929 67 WP MM NOT_NAMED 1929-10-16 06:00:00 NR 16.7676 125.265 main 298 266 __________P___ -1 16.7676 125.265 7 11 327
1929288N13131 1929 67 WP MM NOT_NAMED 1929-10-16 09:00:00 NR 17.2396 124.981 main 266 257 __________P___ -1 17.2396 124.981 7 11 331
1929288N13131 1929 67 WP MM NOT_NAMED 1929-10-16 10:00:00 NR 17.4000 124.900 main 258 246 __________O___ -1 17.4000 124.900 7 11 335
1929288N13131 1929 67 WP MM NOT_NAMED 1929-10-16 12:00:00 NR 17.7348 124.738 main 246 232 __________P___ -1 17.7348 124.738 7 11 338
1929288N13131 1929 67 WP MM NOT_NAMED 1929-10-16 15:00:00 NR 18.2501 124.546 main 232 222 __________P___ -1 18.2501 124.546 7 11 343
1929288N13131 1929 67 WP MM NOT_NAMED 1929-10-16 18:00:00 NR 18.7617 124.409 main 225 224 __________P___ -1 18.7617 124.409 7 10 348
1929288N13131 1929 67 WP MM NOT_NAMED 1929-10-16 21:00:00 NR 19.2476 124.320 main 228 233 __________P___ -1 19.2476 124.320 7 10 351
1929288N13131 1929 67 WP MM NOT_NAMED 1929-10-16 22:00:00 NR 19.4000 124.300 main 238 238 __________O___ -1 19.4000 124.300 7 9 351
1929288N13131 1929 67 WP MM NOT_NAMED 1929-10-17 00:00:00 NR 19.6758 124.252 main 255 247 __________P___ -1 19.6758 124.252 7 8 353
1929288N13131 1929 67 WP MM NOT_NAMED 1929-10-17 03:00:00 NR 20.0580 124.219 main 275 275 __________P___ -1 20.0580 124.219 7 7 359
1929288N13131 1929 67 WP MM NOT_NAMED 1929-10-17 06:00:00 NR 20.4191 124.228 main 299 299 __________P___ -1 20.4191 124.228 7 7 5
1929288N13131 1929 67 WP MM NOT_NAMED 1929-10-17 09:00:00 NR 20.7778 124.276 main 340 340 __________P___ -1 20.7778 124.276 7 7 8
1929288N13131 1929 67 WP MM NOT_NAMED 1929-10-17 10:00:00 NR 20.9000 124.300 main 349 349 __________O___ -1 20.9000 124.300 7 8 12
1929288N13131 1929 67 WP MM NOT_NAMED 1929-10-17 12:00:00 NR 21.1515 124.359 main 370 356 __________P___ -1 21.1515 124.359 7 8 14
1929288N13131 1929 67 WP MM NOT_NAMED 1929-10-17 15:00:00 NR 21.5438 124.472 main 365 350 __________P___ -1 21.5438 124.472 7 8 16
1929288N13131 1929 67 WP MM NOT_NAMED 1929-10-17 18:00:00 NR 21.9491 124.605 main 354 346 __________P___ -1 21.9491 124.605 7 9 18
1929288N13131 1929 67 WP MM NOT_NAMED 1929-10-17 21:00:00 NR 22.3618 124.750 main 357 354 __________P___ -1 22.3618 124.750 7 9 18
1929288N13131 1929 67 WP MM NOT_NAMED 1929-10-17 22:00:00 NR 22.5000 124.800 main 354 __________O___ -1 22.5000 124.800 7 9 14

Digital Typhoon Data and Search

About IBTrACS Database

This database is a web-friendly format of International Best Track Archive for Climate Stewardship (IBTrACS), a global best track data archive curated by NOAA dating back to 1842.

Updated: 2021-10-21